createdAt,value
2019-05-22T00:00:44.905Z,0.00
2019-05-22T00:01:44.905Z,0.00
2019-05-22T00:02:44.896Z,0.00
2019-05-22T00:03:44.922Z,0.00
2019-05-22T00:04:44.926Z,0.00
2019-05-22T00:05:44.847Z,0.00
2019-05-22T00:06:44.833Z,0.00
2019-05-22T00:07:44.833Z,0.00
2019-05-22T00:08:44.826Z,0.00
2019-05-22T00:09:44.828Z,0.00
2019-05-22T00:10:44.793Z,0.00
2019-05-22T00:11:44.781Z,0.00
2019-05-22T00:12:46.993Z,0.00
2019-05-22T00:13:44.781Z,0.00
2019-05-22T00:14:44.772Z,0.00
2019-05-22T00:15:44.757Z,0.00
2019-05-22T00:16:44.729Z,0.00
2019-05-22T00:17:44.719Z,0.00
2019-05-22T00:18:44.730Z,0.00
2019-05-22T00:19:44.700Z,0.00
2019-05-22T00:20:44.688Z,0.00
2019-05-22T00:21:44.686Z,0.00
2019-05-22T00:22:44.678Z,0.00
2019-05-22T00:23:44.678Z,0.00
2019-05-22T00:24:44.646Z,0.00
2019-05-22T00:25:44.645Z,0.00
2019-05-22T00:26:44.625Z,0.00
2019-05-22T00:27:44.619Z,0.00
2019-05-22T00:28:44.602Z,0.00
2019-05-22T00:29:44.594Z,0.00
2019-05-22T00:30:44.594Z,0.00
2019-05-22T00:31:44.567Z,0.00
2019-05-22T00:32:44.567Z,0.00
2019-05-22T00:33:44.562Z,0.00
2019-05-22T00:34:44.546Z,0.00
2019-05-22T00:35:44.541Z,0.00
2019-05-22T00:36:44.524Z,0.00
2019-05-22T00:37:44.502Z,0.00
2019-05-22T00:38:44.506Z,0.00
2019-05-22T00:39:44.490Z,0.00
2019-05-22T00:40:44.482Z,0.00
2019-05-22T00:41:44.471Z,0.00
2019-05-22T00:42:44.449Z,0.00
2019-05-22T00:43:44.522Z,0.00
2019-05-22T00:44:44.439Z,0.00
2019-05-22T00:45:44.436Z,0.00
2019-05-22T00:46:44.407Z,0.00
2019-05-22T00:47:44.400Z,0.00
2019-05-22T00:48:44.397Z,0.00
2019-05-22T00:49:44.374Z,0.00
2019-05-22T00:50:44.389Z,0.00
2019-05-22T00:51:44.357Z,0.00
2019-05-22T00:52:44.347Z,0.00
2019-05-22T00:53:44.365Z,0.00
2019-05-22T00:54:44.388Z,0.00
2019-05-22T00:55:44.322Z,0.00
2019-05-22T00:56:44.322Z,0.00
2019-05-22T00:57:44.302Z,0.00
2019-05-22T00:58:44.293Z,0.00
2019-05-22T00:59:44.294Z,0.00
2019-05-22T01:00:44.282Z,0.00
2019-05-22T01:01:44.287Z,0.00
2019-05-22T01:02:44.247Z,0.00
2019-05-22T01:03:44.232Z,0.00
2019-05-22T01:04:44.219Z,0.00
2019-05-22T01:05:44.221Z,0.00
2019-05-22T01:06:44.204Z,0.00
2019-05-22T01:07:44.202Z,0.00
2019-05-22T01:08:44.187Z,0.00
2019-05-22T01:09:44.174Z,0.00
2019-05-22T01:10:44.158Z,0.00
2019-05-22T01:11:44.169Z,0.00
2019-05-22T01:12:44.170Z,0.00
2019-05-22T01:13:44.121Z,0.00
2019-05-22T01:14:44.106Z,0.00
2019-05-22T01:15:44.102Z,0.00
2019-05-22T01:16:44.096Z,0.00
2019-05-22T01:17:44.121Z,0.00
2019-05-22T01:18:44.065Z,0.00
2019-05-22T01:19:44.054Z,0.00
2019-05-22T01:20:44.044Z,0.00
2019-05-22T01:21:44.045Z,0.00
2019-05-22T01:22:47.221Z,0.00
2019-05-22T01:23:44.011Z,0.00
2019-05-22T01:24:44.016Z,0.00
2019-05-22T01:25:43.996Z,0.00
2019-05-22T01:26:44.102Z,0.00
2019-05-22T01:27:43.971Z,0.00
2019-05-22T01:28:43.963Z,0.00
2019-05-22T01:29:43.970Z,0.00
2019-05-22T01:30:43.990Z,0.00
2019-05-22T01:31:43.951Z,0.00
2019-05-22T01:32:43.944Z,0.00
2019-05-22T01:33:43.924Z,0.00
2019-05-22T01:34:43.900Z,0.00
2019-05-22T01:35:43.898Z,0.00
2019-05-22T01:36:43.887Z,0.00
2019-05-22T01:37:43.867Z,0.00
2019-05-22T01:38:43.867Z,0.00
2019-05-22T01:39:43.855Z,0.00
2019-05-22T01:40:43.838Z,0.00
2019-05-22T01:41:43.836Z,0.00
2019-05-22T01:42:43.826Z,0.00
2019-05-22T01:43:43.806Z,0.00
2019-05-22T01:44:59.720Z,0.00
2019-05-22T01:45:44.775Z,0.00
2019-05-22T01:46:43.807Z,0.00
2019-05-22T01:47:43.775Z,0.00
2019-05-22T01:48:43.747Z,0.00
2019-05-22T01:49:43.752Z,0.00
2019-05-22T01:50:43.751Z,0.00
2019-05-22T01:51:43.736Z,0.00
2019-05-22T01:52:43.702Z,0.00
2019-05-22T01:53:43.715Z,0.00
2019-05-22T01:54:43.681Z,0.00
2019-05-22T01:55:43.714Z,0.00
2019-05-22T01:56:43.662Z,0.00
2019-05-22T01:57:43.659Z,0.00
2019-05-22T01:58:43.653Z,0.00
2019-05-22T01:59:43.639Z,0.00
2019-05-22T02:00:43.630Z,0.00
2019-05-22T02:01:43.609Z,0.00
2019-05-22T02:02:43.607Z,0.00
2019-05-22T02:03:43.609Z,0.00
2019-05-22T02:04:43.566Z,0.00
2019-05-22T02:05:43.814Z,0.00
2019-05-22T02:06:43.566Z,0.00
2019-05-22T02:07:43.550Z,0.00
2019-05-22T02:08:43.558Z,0.00
2019-05-22T02:09:43.520Z,0.00
2019-05-22T02:10:43.527Z,0.00
2019-05-22T02:11:43.505Z,0.00
2019-05-22T02:12:43.519Z,0.00
2019-05-22T02:13:43.517Z,0.00
2019-05-22T02:14:43.501Z,0.00
2019-05-22T02:15:43.465Z,0.00
2019-05-22T02:16:56.344Z,0.00
2019-05-22T02:17:44.445Z,0.00
2019-05-22T02:18:43.433Z,0.00
2019-05-22T02:19:43.413Z,0.00
2019-05-22T02:20:43.400Z,0.00
2019-05-22T02:21:43.390Z,0.00
2019-05-22T02:22:43.382Z,0.00
2019-05-22T02:23:43.381Z,0.00
2019-05-22T02:24:43.375Z,0.00
2019-05-22T02:25:43.350Z,0.00
2019-05-22T02:26:43.348Z,0.00
2019-05-22T02:27:43.327Z,0.00
2019-05-22T02:28:43.338Z,0.00
2019-05-22T02:29:43.337Z,0.00
2019-05-22T02:30:43.317Z,0.00
2019-05-22T02:31:43.289Z,0.00
2019-05-22T02:32:43.283Z,0.00
2019-05-22T02:33:43.279Z,0.00
2019-05-22T02:34:43.257Z,0.00
2019-05-22T02:35:43.259Z,0.00
2019-05-22T02:36:43.238Z,0.00
2019-05-22T02:37:43.228Z,0.00
2019-05-22T02:38:43.215Z,0.00
2019-05-22T02:39:43.205Z,0.00
2019-05-22T02:40:43.193Z,0.00
2019-05-22T02:41:43.186Z,0.00
2019-05-22T02:42:43.174Z,0.00
2019-05-22T02:43:43.174Z,0.00
2019-05-22T02:44:43.150Z,0.00
2019-05-22T02:45:43.131Z,0.00
2019-05-22T02:46:43.142Z,0.00
2019-05-22T02:47:43.131Z,0.00
2019-05-22T02:48:43.110Z,0.00
2019-05-22T02:49:43.104Z,0.00
2019-05-22T02:50:43.079Z,0.00
2019-05-22T02:51:43.097Z,0.00
2019-05-22T02:52:43.062Z,0.00
2019-05-22T02:53:43.071Z,0.00
2019-05-22T02:54:43.048Z,0.00
2019-05-22T02:55:43.033Z,0.00
2019-05-22T02:56:43.028Z,0.00
2019-05-22T02:57:43.012Z,0.00
2019-05-22T02:58:43.017Z,0.00
2019-05-22T02:59:42.995Z,0.00
2019-05-22T03:00:42.978Z,0.00
2019-05-22T03:01:42.979Z,0.00
2019-05-22T03:02:42.965Z,0.00
2019-05-22T03:03:42.957Z,0.00
2019-05-22T03:04:42.946Z,0.00
2019-05-22T03:05:42.933Z,4.00
2019-05-22T03:06:42.934Z,4.00
2019-05-22T03:07:42.906Z,4.00
2019-05-22T03:08:42.905Z,0.00
2019-05-22T03:09:46.577Z,4.00
2019-05-22T03:10:42.876Z,4.00
2019-05-22T03:11:42.929Z,4.00
2019-05-22T03:12:42.851Z,4.00
2019-05-22T03:13:42.850Z,4.00
2019-05-22T03:14:42.831Z,8.00
2019-05-22T03:15:42.811Z,4.00
2019-05-22T03:16:42.811Z,4.00
2019-05-22T03:17:42.808Z,8.00
2019-05-22T03:18:42.786Z,8.00
2019-05-22T03:19:42.785Z,8.00
2019-05-22T03:20:42.760Z,8.00
2019-05-22T03:21:42.758Z,8.00
2019-05-22T03:22:42.757Z,8.00
2019-05-22T03:23:42.737Z,12.00
2019-05-22T03:24:43.045Z,12.00
2019-05-22T03:25:42.726Z,16.00
2019-05-22T03:26:42.704Z,16.00
2019-05-22T03:27:42.705Z,16.00
2019-05-22T03:28:42.675Z,20.00
2019-05-22T03:29:42.666Z,28.00
2019-05-22T03:30:42.690Z,32.00
2019-05-22T03:31:42.649Z,32.00
2019-05-22T03:32:43.983Z,32.00
2019-05-22T03:33:42.626Z,36.00
2019-05-22T03:34:42.613Z,36.00
2019-05-22T03:35:44.486Z,36.00
2019-05-22T03:36:42.601Z,40.00
2019-05-22T03:37:42.611Z,44.00
2019-05-22T03:38:42.578Z,48.00
2019-05-22T03:39:42.561Z,56.00
2019-05-22T03:40:42.551Z,60.00
2019-05-22T03:41:42.554Z,60.00
2019-05-22T03:42:42.540Z,72.00
2019-05-22T03:43:42.519Z,84.00
2019-05-22T03:44:42.508Z,80.00
2019-05-22T03:45:42.509Z,84.00
2019-05-22T03:46:42.494Z,104.00
2019-05-22T03:47:42.469Z,116.00
2019-05-22T03:48:42.467Z,124.00
2019-05-22T03:49:42.467Z,128.00
2019-05-22T03:50:42.448Z,136.00
2019-05-22T03:51:42.449Z,148.00
2019-05-22T03:52:42.427Z,148.00
2019-05-22T03:53:42.415Z,152.00
2019-05-22T03:54:42.409Z,192.00
2019-05-22T03:55:42.389Z,228.00
2019-05-22T03:56:42.404Z,240.00
2019-05-22T03:57:42.394Z,240.00
2019-05-22T03:58:42.354Z,260.00
2019-05-22T03:59:42.348Z,280.00
2019-05-22T04:00:43.455Z,300.00
2019-05-22T04:01:42.331Z,320.00
2019-05-22T04:02:42.313Z,372.00
2019-05-22T04:03:42.314Z,432.00
2019-05-22T04:04:42.292Z,500.00
2019-05-22T04:05:42.289Z,572.00
2019-05-22T04:06:42.276Z,576.00
2019-05-22T04:07:42.260Z,580.00
2019-05-22T04:08:42.272Z,612.00
2019-05-22T04:09:42.265Z,628.00
2019-05-22T04:10:42.267Z,632.00
2019-05-22T04:11:42.217Z,656.00
2019-05-22T04:12:42.228Z,684.00
2019-05-22T04:13:42.212Z,712.00
2019-05-22T04:14:42.181Z,780.00
2019-05-22T04:15:42.187Z,780.00
2019-05-22T04:16:42.177Z,760.00
2019-05-22T04:17:42.163Z,776.00
2019-05-22T04:18:42.156Z,864.00
2019-05-22T04:19:49.131Z,916.00
2019-05-22T04:20:43.180Z,872.00
2019-05-22T04:21:42.108Z,848.00
2019-05-22T04:22:42.114Z,852.00
2019-05-22T04:23:42.097Z,848.00
2019-05-22T04:24:42.086Z,832.00
2019-05-22T04:25:42.143Z,864.00
2019-05-22T04:26:42.054Z,908.00
2019-05-22T04:27:42.052Z,940.00
2019-05-22T04:28:42.045Z,976.00
2019-05-22T04:29:42.023Z,924.00
2019-05-22T04:30:42.021Z,884.00
2019-05-22T04:31:41.999Z,976.00
2019-05-22T04:32:41.989Z,1084.00
2019-05-22T04:33:41.981Z,1056.00
2019-05-22T04:34:41.979Z,1028.00
2019-05-22T04:35:41.969Z,1120.00
2019-05-22T04:36:41.958Z,1324.00
2019-05-22T04:37:41.947Z,1352.00
2019-05-22T04:38:41.950Z,1432.00
2019-05-22T04:39:41.921Z,1480.00
2019-05-22T04:40:41.907Z,1376.00
2019-05-22T04:41:41.896Z,1456.00
2019-05-22T04:42:41.894Z,1556.00
2019-05-22T04:43:41.886Z,1484.00
2019-05-22T04:44:41.876Z,1396.00
2019-05-22T04:45:41.858Z,1508.00
2019-05-22T04:46:41.854Z,1744.00
2019-05-22T04:47:41.836Z,1952.00
2019-05-22T04:48:45.793Z,2076.00
2019-05-22T04:49:41.813Z,1904.00
2019-05-22T04:50:41.804Z,1808.00
2019-05-22T04:51:41.812Z,1764.00
2019-05-22T04:52:41.781Z,1952.00
2019-05-22T04:53:41.781Z,1964.00
2019-05-22T04:54:41.754Z,2080.00
2019-05-22T04:55:41.742Z,1804.00
2019-05-22T04:56:41.804Z,2320.00
2019-05-22T04:57:41.729Z,2652.00
2019-05-22T04:58:41.711Z,2076.00
2019-05-22T04:59:41.709Z,1800.00
2019-05-22T05:00:41.700Z,1920.00
2019-05-22T05:01:41.699Z,1868.00
2019-05-22T05:02:41.679Z,1608.00
2019-05-22T05:03:41.721Z,1520.00
2019-05-22T05:04:41.673Z,1668.00
2019-05-22T05:05:41.643Z,2056.00
2019-05-22T05:06:41.646Z,2216.00
2019-05-22T05:07:41.615Z,1928.00
2019-05-22T05:08:41.626Z,1732.00
2019-05-22T05:09:41.597Z,1856.00
2019-05-22T05:10:41.600Z,2048.00
2019-05-22T05:11:41.577Z,2588.00
2019-05-22T05:12:41.565Z,2724.00
2019-05-22T05:13:41.553Z,2440.00
2019-05-22T05:14:41.602Z,2316.00
2019-05-22T05:15:41.544Z,2664.00
2019-05-22T05:16:41.544Z,2704.00
2019-05-22T05:17:41.973Z,6164.00
2019-05-22T05:18:41.526Z,2120.00
2019-05-22T05:19:41.491Z,2292.00
2019-05-22T05:20:41.511Z,2744.00
2019-05-22T05:21:41.469Z,3148.00
2019-05-22T05:22:41.459Z,3448.00
2019-05-22T05:23:41.463Z,3012.00
2019-05-22T05:24:41.429Z,3136.00
2019-05-22T05:25:41.421Z,3568.00
2019-05-22T05:26:41.428Z,3720.00
2019-05-22T05:27:41.426Z,4044.00
2019-05-22T05:28:41.402Z,4364.00
2019-05-22T05:29:41.388Z,4772.00
2019-05-22T05:30:41.368Z,4488.00
2019-05-22T05:31:41.360Z,4080.00
2019-05-22T05:32:41.387Z,4512.00
2019-05-22T05:33:41.347Z,7564.00
2019-05-22T05:34:41.333Z,3964.00
2019-05-22T05:35:41.318Z,3480.00
2019-05-22T05:36:41.346Z,3568.00
2019-05-22T05:37:41.325Z,4200.00
2019-05-22T05:38:41.298Z,4600.00
2019-05-22T05:39:41.319Z,6872.00
2019-05-22T05:40:41.267Z,5492.00
2019-05-22T05:41:41.252Z,10320.00
2019-05-22T05:42:41.275Z,5092.00
2019-05-22T05:43:41.282Z,4948.00
2019-05-22T05:44:41.223Z,4944.00
2019-05-22T05:45:41.211Z,5312.00
2019-05-22T05:46:41.201Z,5220.00
2019-05-22T05:47:41.210Z,5288.00
2019-05-22T05:48:41.181Z,4860.00
2019-05-22T05:49:41.171Z,4608.00
2019-05-22T05:50:41.169Z,5104.00
2019-05-22T05:51:41.149Z,6172.00
2019-05-22T05:52:41.148Z,6192.00
2019-05-22T05:53:41.140Z,5576.00
2019-05-22T05:54:41.127Z,4684.00
2019-05-22T05:55:41.109Z,4796.00
2019-05-22T05:56:41.097Z,5404.00
2019-05-22T05:57:41.099Z,5544.00
2019-05-22T05:58:41.145Z,4976.00
2019-05-22T05:59:41.066Z,4032.00
2019-05-22T06:00:44.462Z,4228.00
2019-05-22T06:01:41.056Z,5256.00
2019-05-22T06:02:55.709Z,5684.00
2019-05-22T06:03:42.023Z,5884.00
2019-05-22T06:04:41.013Z,5772.00
2019-05-22T06:05:40.995Z,6048.00
2019-05-22T06:06:40.985Z,6504.00
2019-05-22T06:07:41.005Z,5964.00
2019-05-22T06:08:40.963Z,6308.00
2019-05-22T06:09:40.958Z,7560.00
2019-05-22T06:10:40.942Z,9080.00
2019-05-22T06:11:40.946Z,11376.00
2019-05-22T06:12:40.942Z,9592.00
2019-05-22T06:13:40.911Z,9132.00
2019-05-22T06:14:40.900Z,10884.00
2019-05-22T06:15:47.064Z,9248.00
2019-05-22T06:16:41.879Z,8800.00
2019-05-22T06:17:40.880Z,7848.00
2019-05-22T06:18:40.881Z,7048.00
2019-05-22T06:19:40.861Z,6944.00
2019-05-22T06:20:40.835Z,7532.00
2019-05-22T06:21:40.829Z,8052.00
2019-05-22T06:22:40.882Z,10300.00
2019-05-22T06:23:40.806Z,11968.00
2019-05-22T06:24:40.807Z,10524.00
2019-05-22T06:25:40.797Z,14404.00
2019-05-22T06:26:40.776Z,33632.00
2019-05-22T06:27:40.765Z,12116.00
2019-05-22T06:28:40.785Z,62816.00
2019-05-22T06:29:40.751Z,63392.00
2019-05-22T06:30:40.735Z,60064.00
2019-05-22T06:31:40.714Z,65152.00
2019-05-22T06:32:40.737Z,67936.00
2019-05-22T06:33:40.708Z,69984.00
2019-05-22T06:34:40.683Z,67392.00
2019-05-22T06:35:40.673Z,67904.00
2019-05-22T06:36:40.683Z,70272.00
2019-05-22T06:37:40.653Z,72384.00
2019-05-22T06:38:40.657Z,40800.00
2019-05-22T06:39:40.645Z,28320.00
2019-05-22T06:40:40.622Z,25728.00
2019-05-22T06:41:40.614Z,18432.00
2019-05-22T06:42:40.614Z,19840.00
2019-05-22T06:43:40.611Z,23808.00
2019-05-22T06:44:40.591Z,49312.00
2019-05-22T06:45:40.561Z,69280.00
2019-05-22T06:46:40.561Z,64352.00
2019-05-22T06:47:40.548Z,41152.00
2019-05-22T06:48:40.563Z,55168.00
2019-05-22T06:49:40.532Z,16992.00
2019-05-22T06:50:40.520Z,70784.00
2019-05-22T06:51:40.500Z,77408.00
2019-05-22T06:52:40.493Z,79840.00
2019-05-22T06:53:40.499Z,78272.00
2019-05-22T06:54:40.627Z,72000.00
2019-05-22T06:55:40.458Z,16992.00
2019-05-22T06:56:40.453Z,75456.00
2019-05-22T06:57:40.449Z,69184.00
2019-05-22T06:58:40.427Z,33504.00
2019-05-22T06:59:40.430Z,10888.00
2019-05-22T07:00:45.146Z,40192.00
2019-05-22T07:01:40.400Z,29760.00
2019-05-22T07:02:40.379Z,11272.00
2019-05-22T07:03:40.377Z,50336.00
2019-05-22T07:04:40.367Z,79616.00
2019-05-22T07:05:40.387Z,81344.00
2019-05-22T07:06:40.361Z,81024.00
2019-05-22T07:07:40.335Z,82112.00
2019-05-22T07:08:40.315Z,81056.00
2019-05-22T07:09:40.307Z,81504.00
2019-05-22T07:10:40.323Z,80992.00
2019-05-22T07:11:40.295Z,80448.00
2019-05-22T07:12:40.279Z,77824.00
2019-05-22T07:13:40.267Z,78240.00
2019-05-22T07:14:40.265Z,75936.00
2019-05-22T07:15:40.264Z,77216.00
2019-05-22T07:16:40.234Z,79936.00
2019-05-22T07:17:40.223Z,79936.00
2019-05-22T07:18:40.214Z,75584.00
2019-05-22T07:19:40.217Z,77344.00
2019-05-22T07:20:40.278Z,78688.00
2019-05-22T07:21:40.183Z,79392.00
2019-05-22T07:22:40.173Z,79264.00
2019-05-22T07:23:40.163Z,48224.00
2019-05-22T07:24:40.153Z,83328.00
2019-05-22T07:25:40.152Z,82464.00
2019-05-22T07:26:41.842Z,75968.00
2019-05-22T07:27:40.121Z,73696.00
2019-05-22T07:28:40.112Z,80224.00
2019-05-22T07:29:40.107Z,83488.00
2019-05-22T07:30:40.103Z,81600.00
2019-05-22T07:31:40.080Z,78112.00
2019-05-22T07:32:40.074Z,74112.00
2019-05-22T07:33:40.062Z,77024.00
2019-05-22T07:34:40.042Z,76160.00
2019-05-22T07:36:04.557Z,21120.00
2019-05-22T07:36:41.031Z,13520.00
2019-05-22T07:37:40.024Z,13324.00
2019-05-22T07:38:40.008Z,74208.00
2019-05-22T07:39:40.006Z,20448.00
2019-05-22T07:40:40.012Z,18016.00
2019-05-22T07:41:39.970Z,23616.00
2019-05-22T07:42:40.796Z,47136.00
2019-05-22T07:43:41.664Z,50784.00
2019-05-22T07:44:39.969Z,60064.00
2019-05-22T07:45:40.307Z,17472.00
2019-05-22T07:46:39.922Z,11024.00
2019-05-22T07:47:39.929Z,9208.00
2019-05-22T07:48:39.899Z,9576.00
2019-05-22T07:49:39.901Z,13740.00
2019-05-22T07:50:39.887Z,11360.00
2019-05-22T07:51:53.209Z,12528.00
2019-05-22T07:52:40.858Z,11544.00
2019-05-22T07:53:39.849Z,13668.00
2019-05-22T07:54:39.847Z,26048.00
2019-05-22T07:55:39.847Z,73792.00
2019-05-22T07:56:39.816Z,72608.00
2019-05-22T07:57:39.805Z,61696.00
2019-05-22T07:58:39.816Z,19328.00
2019-05-22T07:59:39.796Z,49568.00
2019-05-22T08:00:39.786Z,14420.00
2019-05-22T08:01:39.805Z,14056.00
2019-05-22T08:02:39.771Z,17856.00
2019-05-22T08:03:39.745Z,25856.00
2019-05-22T08:04:39.755Z,63040.00
2019-05-22T08:05:39.726Z,34112.00
2019-05-22T08:06:39.753Z,63008.00
2019-05-22T08:07:39.850Z,46752.00
2019-05-22T08:08:40.217Z,38016.00
2019-05-22T08:09:39.684Z,42304.00
2019-05-22T08:10:39.673Z,38240.00
2019-05-22T08:11:39.676Z,31744.00
2019-05-22T08:12:39.644Z,27872.00
2019-05-22T08:13:39.648Z,35488.00
2019-05-22T08:14:39.633Z,71904.00
2019-05-22T08:15:39.631Z,73184.00
2019-05-22T08:16:39.603Z,74240.00
2019-05-22T08:17:39.593Z,70016.00
2019-05-22T08:18:39.597Z,72384.00
2019-05-22T08:19:39.584Z,70368.00
2019-05-22T08:20:39.570Z,71424.00
2019-05-22T08:21:39.573Z,38816.00
2019-05-22T08:22:39.543Z,68864.00
2019-05-22T08:23:39.540Z,25248.00
2019-05-22T08:24:40.329Z,18528.00
2019-05-22T08:25:39.537Z,34656.00
2019-05-22T08:26:53.152Z,16640.00
2019-05-22T08:27:40.480Z,34656.00
2019-05-22T08:28:39.489Z,22720.00
2019-05-22T08:29:39.470Z,16736.00
2019-05-22T08:30:39.475Z,12888.00
2019-05-22T08:31:39.494Z,15284.00
2019-05-22T08:32:39.429Z,21088.00
2019-05-22T08:33:39.426Z,24448.00
2019-05-22T08:34:39.442Z,68896.00
2019-05-22T08:35:39.603Z,81120.00
2019-05-22T08:36:39.430Z,32224.00
2019-05-22T08:37:39.482Z,81728.00
2019-05-22T08:38:39.438Z,80736.00
2019-05-22T08:39:39.411Z,25920.00
2019-05-22T08:40:39.347Z,18112.00
2019-05-22T08:41:39.359Z,64352.00
2019-05-22T08:42:39.344Z,73312.00
2019-05-22T08:44:03.141Z,74080.00
2019-05-22T08:44:40.308Z,75008.00
2019-05-22T08:45:39.368Z,76064.00
2019-05-22T08:46:39.290Z,76224.00
2019-05-22T08:47:39.307Z,73920.00
2019-05-22T08:48:46.642Z,75168.00
2019-05-22T08:49:40.320Z,74880.00
2019-05-22T08:50:39.258Z,73312.00
2019-05-22T08:51:39.236Z,63040.00
2019-05-22T08:52:39.215Z,66400.00
2019-05-22T08:53:47.374Z,67200.00
2019-05-22T08:54:40.219Z,68704.00
2019-05-22T08:55:39.196Z,69824.00
2019-05-22T08:56:39.269Z,72640.00
2019-05-22T08:57:39.164Z,69248.00
2019-05-22T08:58:39.172Z,63872.00
2019-05-22T08:59:39.154Z,29632.00
2019-05-22T09:00:39.134Z,52736.00
2019-05-22T09:01:39.124Z,21312.00
2019-05-22T09:02:39.141Z,16000.00
2019-05-22T09:03:39.116Z,18144.00
2019-05-22T09:04:39.125Z,20128.00
2019-05-22T09:05:39.095Z,13584.00
2019-05-22T09:06:39.102Z,15840.00
2019-05-22T09:07:39.102Z,12808.00
2019-05-22T09:08:39.063Z,10840.00
2019-05-22T09:09:39.042Z,12008.00
2019-05-22T09:10:39.038Z,60896.00
2019-05-22T09:11:39.032Z,13980.00
2019-05-22T09:12:39.014Z,14804.00
2019-05-22T09:13:39.083Z,8992.00
2019-05-22T09:14:39.026Z,8116.00
2019-05-22T09:15:39.006Z,7768.00
2019-05-22T09:16:38.971Z,9172.00
2019-05-22T09:17:38.962Z,9016.00
2019-05-22T09:18:38.980Z,8028.00
2019-05-22T09:19:38.930Z,7640.00
2019-05-22T09:20:49.027Z,9524.00
2019-05-22T09:21:40.604Z,13880.00
2019-05-22T09:22:41.000Z,16640.00
2019-05-22T09:23:38.951Z,16480.00
2019-05-22T09:24:38.888Z,16672.00
2019-05-22T09:25:38.878Z,17664.00
2019-05-22T09:26:38.860Z,15068.00
2019-05-22T09:27:38.862Z,10496.00
2019-05-22T09:28:38.878Z,11372.00
2019-05-22T09:29:38.848Z,13044.00
2019-05-22T09:30:38.831Z,10556.00
2019-05-22T09:31:38.817Z,8764.00
2019-05-22T09:32:38.807Z,9468.00
2019-05-22T09:33:38.821Z,12740.00
2019-05-22T09:34:38.776Z,11888.00
2019-05-22T09:35:38.777Z,11052.00
2019-05-22T09:36:38.766Z,14300.00
2019-05-22T09:37:38.816Z,14856.00
2019-05-22T09:38:38.749Z,15776.00
2019-05-22T09:39:38.726Z,15872.00
2019-05-22T09:40:38.719Z,13944.00
2019-05-22T09:41:38.724Z,12100.00
2019-05-22T09:42:38.699Z,9984.00
2019-05-22T09:43:38.747Z,9080.00
2019-05-22T09:44:38.674Z,8696.00
2019-05-22T09:45:38.664Z,9124.00
2019-05-22T09:46:38.663Z,8872.00
2019-05-22T09:47:38.652Z,8524.00
2019-05-22T09:48:38.641Z,7420.00
2019-05-22T09:49:38.662Z,7304.00
2019-05-22T09:50:38.637Z,8060.00
2019-05-22T09:51:39.271Z,9576.00
2019-05-22T09:52:38.603Z,10496.00
2019-05-22T09:53:39.260Z,11480.00
2019-05-22T09:54:38.578Z,14208.00
2019-05-22T09:55:39.262Z,16288.00
2019-05-22T09:56:38.552Z,16288.00
2019-05-22T09:57:39.772Z,16160.00
2019-05-22T09:58:38.549Z,16224.00
2019-05-22T09:59:39.169Z,15936.00
2019-05-22T10:00:38.500Z,16256.00
2019-05-22T10:01:38.521Z,16000.00
2019-05-22T10:02:38.501Z,16096.00
2019-05-22T10:03:38.489Z,16608.00
2019-05-22T10:04:38.468Z,15936.00
2019-05-22T10:05:38.499Z,15872.00
2019-05-22T10:06:38.458Z,15148.00
2019-05-22T10:07:57.015Z,14644.00
2019-05-22T10:08:39.416Z,14000.00
2019-05-22T10:09:38.421Z,13764.00
2019-05-22T10:10:38.394Z,13868.00
2019-05-22T10:11:38.396Z,14092.00
2019-05-22T10:12:38.390Z,14308.00
2019-05-22T10:13:38.381Z,14012.00
2019-05-22T10:14:38.683Z,13176.00
2019-05-22T10:15:38.345Z,12096.00
2019-05-22T10:16:38.336Z,10968.00
2019-05-22T10:17:38.325Z,10924.00
2019-05-22T10:18:38.334Z,11116.00
2019-05-22T10:19:38.294Z,11892.00
2019-05-22T10:20:38.306Z,12336.00
2019-05-22T10:21:38.273Z,12304.00
2019-05-22T10:22:38.265Z,10740.00
2019-05-22T10:23:38.294Z,9144.00
2019-05-22T10:24:38.244Z,9536.00
2019-05-22T10:25:38.233Z,11276.00
2019-05-22T10:26:38.224Z,12160.00
2019-05-22T10:27:38.212Z,11924.00
2019-05-22T10:28:38.214Z,11160.00
2019-05-22T10:29:38.211Z,10748.00
2019-05-22T10:30:38.207Z,10532.00
2019-05-22T10:31:38.171Z,11276.00
2019-05-22T10:32:38.161Z,9816.00
2019-05-22T10:33:38.153Z,9232.00
2019-05-22T10:34:38.151Z,9020.00
2019-05-22T10:35:38.135Z,8016.00
2019-05-22T10:36:38.114Z,8256.00
2019-05-22T10:37:38.108Z,9092.00
2019-05-22T10:38:38.110Z,7728.00
2019-05-22T10:39:38.099Z,7080.00
2019-05-22T10:40:38.073Z,6672.00
2019-05-22T10:41:38.069Z,6976.00
2019-05-22T10:42:38.101Z,6496.00
2019-05-22T10:43:38.039Z,5844.00
2019-05-22T10:44:38.033Z,6252.00
2019-05-22T10:45:38.026Z,6712.00
2019-05-22T10:46:38.021Z,6660.00
2019-05-22T10:47:38.135Z,6940.00
2019-05-22T10:48:40.505Z,6468.00
2019-05-22T10:49:37.978Z,6448.00
2019-05-22T10:50:37.980Z,6424.00
2019-05-22T10:51:37.955Z,6528.00
2019-05-22T10:52:37.975Z,6416.00
2019-05-22T10:53:37.953Z,6608.00
2019-05-22T10:54:37.936Z,7976.00
2019-05-22T10:55:37.915Z,7696.00
2019-05-22T10:56:37.905Z,7152.00
2019-05-22T10:57:40.784Z,6516.00
2019-05-22T10:58:37.877Z,6136.00
2019-05-22T10:59:37.871Z,7352.00
2019-05-22T11:00:37.881Z,7760.00
2019-05-22T11:01:37.868Z,7796.00
2019-05-22T11:02:37.842Z,8208.00
2019-05-22T11:03:37.834Z,7624.00
2019-05-22T11:04:37.838Z,7288.00
2019-05-22T11:05:37.806Z,7676.00
2019-05-22T11:06:37.801Z,6744.00
2019-05-22T11:07:37.791Z,7552.00
2019-05-22T11:08:37.781Z,7576.00
2019-05-22T11:09:37.760Z,6988.00
2019-05-22T11:10:37.761Z,6700.00
2019-05-22T11:11:37.739Z,6712.00
2019-05-22T11:12:37.740Z,5436.00
2019-05-22T11:13:37.778Z,5760.00
2019-05-22T11:14:37.710Z,5548.00
2019-05-22T11:15:37.719Z,5272.00
2019-05-22T11:16:37.689Z,5760.00
2019-05-22T11:17:37.679Z,6376.00
2019-05-22T11:18:37.678Z,6368.00
2019-05-22T11:19:37.660Z,5304.00
2019-05-22T11:20:37.658Z,6248.00
2019-05-22T11:21:37.636Z,6256.00
2019-05-22T11:22:37.626Z,5900.00
2019-05-22T11:23:51.299Z,5488.00
2019-05-22T11:24:38.615Z,6124.00
2019-05-22T11:25:37.628Z,6476.00
2019-05-22T11:26:37.838Z,5792.00
2019-05-22T11:27:37.583Z,5804.00
2019-05-22T11:28:37.575Z,5184.00
2019-05-22T11:29:37.575Z,5424.00
2019-05-22T11:30:37.548Z,5836.00
2019-05-22T11:31:37.525Z,6284.00
2019-05-22T11:32:37.526Z,6384.00
2019-05-22T11:33:37.525Z,6360.00
2019-05-22T11:34:37.561Z,6244.00
2019-05-22T11:35:37.493Z,6024.00
2019-05-22T11:36:37.484Z,6084.00
2019-05-22T11:37:37.463Z,5616.00
2019-05-22T11:38:37.487Z,5584.00
2019-05-22T11:39:39.855Z,6432.00
2019-05-22T11:40:37.451Z,5912.00
2019-05-22T11:41:37.432Z,6168.00
2019-05-22T11:42:37.412Z,5908.00
2019-05-22T11:43:37.423Z,5592.00
2019-05-22T11:44:37.401Z,5428.00
2019-05-22T11:45:37.432Z,5744.00
2019-05-22T11:46:37.390Z,4880.00
2019-05-22T11:47:37.375Z,5204.00
2019-05-22T11:48:37.344Z,5380.00
2019-05-22T11:49:37.367Z,5572.00
2019-05-22T11:50:37.337Z,5352.00
2019-05-22T11:51:37.336Z,5568.00
2019-05-22T11:52:37.307Z,6192.00
2019-05-22T11:53:37.297Z,5164.00
2019-05-22T11:54:37.286Z,4480.00
2019-05-22T11:55:45.247Z,4912.00
2019-05-22T11:56:38.272Z,4800.00
2019-05-22T11:57:37.247Z,5084.00
2019-05-22T11:58:37.245Z,5100.00
2019-05-22T11:59:37.256Z,5232.00
2019-05-22T12:00:37.314Z,5188.00
2019-05-22T12:01:37.224Z,5812.00
2019-05-22T12:02:37.206Z,5596.00
2019-05-22T12:04:48.293Z,3948.00
2019-05-22T12:05:46.963Z,3756.00
2019-05-22T12:06:46.097Z,3596.00
2019-05-22T12:07:46.103Z,3536.00
2019-05-22T12:08:46.107Z,3584.00
2019-05-22T12:09:46.060Z,3424.00
2019-05-22T12:10:46.059Z,3360.00
2019-05-22T12:11:46.095Z,3312.00
2019-05-22T12:12:46.036Z,3300.00
2019-05-22T12:13:46.046Z,3276.00
2019-05-22T12:14:46.010Z,3244.00
2019-05-22T12:15:46.016Z,3268.00
2019-05-22T12:16:45.997Z,3324.00
2019-05-22T12:17:45.992Z,3352.00
2019-05-22T12:18:46.023Z,3268.00
2019-05-22T12:19:45.966Z,3196.00
2019-05-22T12:20:45.944Z,3184.00
2019-05-22T12:21:45.937Z,3176.00